createdAt,value
2022-10-09T00:01:08.340Z,102375.06
2022-10-09T00:03:36.903Z,102374.31
2022-10-09T00:06:05.277Z,102374.44
2022-10-09T00:08:32.934Z,102367.44
2022-10-09T00:11:05.835Z,102367.63
2022-10-09T00:13:33.577Z,102368.56
2022-10-09T00:16:03.751Z,102379.16
2022-10-09T00:18:31.926Z,102375.66
2022-10-09T00:20:59.627Z,102373.84
2022-10-09T00:23:27.583Z,102368.56
2022-10-09T00:25:57.075Z,102369.75
2022-10-09T00:28:27.488Z,102377.59
2022-10-09T00:30:55.323Z,102372.50
2022-10-09T00:33:23.620Z,102370.94
2022-10-09T00:35:51.474Z,102370.94
2022-10-09T00:38:19.142Z,102371.03
2022-10-09T00:40:46.832Z,102371.97
2022-10-09T00:43:17.340Z,102372.06
2022-10-09T00:45:55.512Z,102377.44
2022-10-09T00:48:23.746Z,102381.84
2022-10-09T00:50:53.485Z,102374.84
2022-10-09T00:53:22.835Z,102379.28
2022-10-09T00:55:50.611Z,102369.75
2022-10-09T00:58:18.284Z,102376.06
2022-10-09T01:00:47.459Z,102371.78
2022-10-09T01:03:15.157Z,102377.06
2022-10-09T01:05:50.035Z,102379.81
2022-10-09T01:08:21.503Z,102380.66
2022-10-09T01:10:51.634Z,102372.91
2022-10-09T01:13:24.535Z,102373.06
2022-10-09T01:15:56.256Z,102372.19
2022-10-09T01:18:27.293Z,102369.75
2022-10-09T01:20:56.569Z,102367.34
2022-10-09T01:23:50.061Z,102362.22
2022-10-09T01:26:29.863Z,102370.56
2022-10-09T01:29:01.361Z,102371.41
2022-10-09T01:31:30.993Z,102368.16
2022-10-09T01:34:00.558Z,102366.47
2022-10-09T01:36:29.293Z,102371.91
2022-10-09T01:38:58.776Z,102361.59
2022-10-09T01:41:26.972Z,102362.44
2022-10-09T01:43:54.560Z,102371.22
2022-10-09T01:46:26.595Z,102366.78
2022-10-09T01:48:58.961Z,102368.47
2022-10-09T01:51:31.288Z,102358.84
2022-10-09T01:54:03.285Z,102359.78
2022-10-09T01:56:32.153Z,102353.75
2022-10-09T01:59:03.117Z,102347.72
2022-10-09T02:01:34.175Z,102346.84
2022-10-09T02:04:05.002Z,102358.09
2022-10-09T02:06:32.920Z,102357.25
2022-10-09T02:09:00.783Z,102344.13
2022-10-09T02:11:30.859Z,102346.91
2022-10-09T02:13:59.585Z,102350.50
2022-10-09T02:16:37.410Z,102334.06
2022-10-09T02:19:10.881Z,102347.84
2022-10-09T02:21:45.090Z,102336.63
2022-10-09T02:24:17.919Z,102346.00
2022-10-09T02:26:45.562Z,102345.06
2022-10-09T02:29:14.081Z,102343.28
2022-10-09T02:31:44.280Z,102337.16
2022-10-09T02:34:13.619Z,102336.34
2022-10-09T02:36:42.004Z,102345.31
2022-10-09T02:39:09.673Z,102337.47
2022-10-09T02:41:37.370Z,102334.22
2022-10-09T02:44:05.873Z,102333.44
2022-10-09T02:46:34.150Z,102337.09
2022-10-09T02:49:03.340Z,102335.47
2022-10-09T02:51:31.026Z,102331.22
2022-10-09T02:53:59.551Z,102332.22
2022-10-09T02:56:27.471Z,102336.66
2022-10-09T02:58:55.576Z,102329.72
2022-10-09T03:01:23.468Z,102329.72
2022-10-09T03:03:52.067Z,102328.03
2022-10-09T03:06:22.876Z,102324.63
2022-10-09T03:08:52.078Z,102329.06
2022-10-09T03:11:21.198Z,102322.94
2022-10-09T03:13:48.911Z,102325.63
2022-10-09T03:16:17.963Z,102331.00
2022-10-09T03:18:46.123Z,102328.53
2022-10-09T03:21:15.541Z,102324.28
2022-10-09T03:23:45.279Z,102330.44
2022-10-09T03:26:14.455Z,102332.25
2022-10-09T03:28:43.552Z,102323.56
2022-10-09T03:31:27.416Z,102327.13
2022-10-09T03:33:59.431Z,102333.25
2022-10-09T03:36:27.108Z,102324.66
2022-10-09T03:38:56.073Z,102322.94
2022-10-09T03:41:23.785Z,102333.34
2022-10-09T03:43:51.461Z,102328.91
2022-10-09T03:46:19.135Z,102328.06
2022-10-09T03:48:46.802Z,102321.84
2022-10-09T03:51:14.424Z,102315.72
2022-10-09T03:53:42.102Z,102325.25
2022-10-09T03:56:11.170Z,102323.72
2022-10-09T03:58:38.811Z,102322.03
2022-10-09T04:01:06.569Z,102327.63
2022-10-09T04:03:34.228Z,102320.63
2022-10-09T04:06:01.820Z,102321.63
2022-10-09T04:08:29.420Z,102329.63
2022-10-09T04:10:58.522Z,102341.03
2022-10-09T04:13:27.784Z,102333.19
2022-10-09T04:15:55.788Z,102338.47
2022-10-09T04:18:23.796Z,102330.56
2022-10-09T04:20:52.050Z,102346.47
2022-10-09T04:23:20.127Z,102329.78
2022-10-09T04:25:47.940Z,102336.84
2022-10-09T04:28:15.651Z,102346.63
2022-10-09T04:30:44.723Z,102343.28
2022-10-09T04:33:13.192Z,102340.66
2022-10-09T04:35:42.973Z,102341.59
2022-10-09T04:38:10.673Z,102338.19
2022-10-09T04:40:38.755Z,102333.13
2022-10-09T04:43:06.367Z,102324.28
2022-10-09T04:45:34.109Z,102327.00
2022-10-09T04:48:03.171Z,102329.72
2022-10-09T04:50:30.794Z,102329.72
2022-10-09T04:52:58.502Z,102320.03
2022-10-09T04:55:26.197Z,102328.88
2022-10-09T04:57:53.838Z,102324.38
2022-10-09T05:00:21.483Z,102324.44
2022-10-09T05:02:49.660Z,102323.59
2022-10-09T05:05:18.917Z,102327.00
2022-10-09T05:07:46.477Z,102324.44
2022-10-09T05:10:14.083Z,102330.72
2022-10-09T05:12:41.788Z,102335.97
2022-10-09T05:15:10.221Z,102319.22
2022-10-09T05:17:37.972Z,102317.53
2022-10-09T05:20:06.193Z,102319.31
2022-10-09T05:22:35.267Z,102315.09
2022-10-09T05:25:02.911Z,102323.09
2022-10-09T05:27:30.546Z,102317.97
2022-10-09T05:29:58.199Z,102311.91
2022-10-09T05:32:25.835Z,102318.03
2022-10-09T05:34:53.509Z,102323.41
2022-10-09T05:37:21.161Z,102314.63
2022-10-09T05:39:50.158Z,102318.25
2022-10-09T05:42:17.845Z,102321.75
2022-10-09T05:44:45.393Z,102320.03
2022-10-09T05:47:13.643Z,102311.28
2022-10-09T05:49:41.256Z,102323.63
2022-10-09T05:52:08.854Z,102324.47
2022-10-09T05:54:36.539Z,102325.31
2022-10-09T05:57:05.641Z,102327.94
2022-10-09T05:59:33.277Z,102325.19
2022-10-09T06:02:01.023Z,102325.94
2022-10-09T06:04:29.110Z,102325.88
2022-10-09T06:06:56.718Z,102318.72
2022-10-09T06:09:26.085Z,102324.75
2022-10-09T06:11:54.589Z,102332.72
2022-10-09T06:14:24.445Z,102333.50
2022-10-09T06:16:52.563Z,102329.84
2022-10-09T06:19:20.987Z,102338.56
2022-10-09T06:21:49.178Z,102338.56
2022-10-09T06:24:24.307Z,102339.34
2022-10-09T06:26:54.844Z,102334.16
2022-10-09T06:29:24.125Z,102332.19
2022-10-09T06:31:51.745Z,102327.69
2022-10-09T06:34:19.369Z,102328.53
2022-10-09T06:36:47.050Z,102331.13
2022-10-09T06:39:14.671Z,102334.66
2022-10-09T06:41:42.413Z,102341.66
2022-10-09T06:44:17.336Z,102336.41
2022-10-09T06:46:49.595Z,102341.59
2022-10-09T06:49:17.309Z,102348.41
2022-10-09T06:51:45.133Z,102346.56
2022-10-09T06:54:13.857Z,102338.38
2022-10-09T06:56:41.750Z,102334.59
2022-10-09T06:59:09.754Z,102343.13
2022-10-09T07:01:37.544Z,102349.00
2022-10-09T07:04:08.214Z,102344.50
2022-10-09T07:06:38.651Z,102354.91
2022-10-09T07:09:08.813Z,102349.56
2022-10-09T07:11:38.074Z,102354.75
2022-10-09T07:14:07.554Z,102352.81
2022-10-09T07:16:36.461Z,102358.00
2022-10-09T07:19:07.410Z,102357.69
2022-10-09T07:21:36.875Z,102360.06
2022-10-09T07:24:05.644Z,102363.44
2022-10-09T07:26:37.754Z,102358.16
2022-10-09T07:29:06.134Z,102358.72
2022-10-09T07:31:33.734Z,102364.72
2022-10-09T07:34:01.717Z,102360.06
2022-10-09T07:36:29.519Z,102363.47
2022-10-09T07:38:59.803Z,102370.22
2022-10-09T07:41:28.992Z,102354.00
2022-10-09T07:43:57.130Z,102352.00
2022-10-09T07:46:29.595Z,102350.81
2022-10-09T07:49:00.089Z,102358.75
2022-10-09T07:51:28.958Z,102349.78
2022-10-09T07:53:59.989Z,102350.53
2022-10-09T07:56:29.228Z,102342.28
2022-10-09T07:58:58.140Z,102351.50
2022-10-09T08:01:27.864Z,102353.81
2022-10-09T08:03:56.045Z,102349.22
2022-10-09T08:06:23.766Z,102347.06
2022-10-09T08:08:52.074Z,102343.97
2022-10-09T08:11:22.174Z,102343.53
2022-10-09T08:13:50.576Z,102343.84
2022-10-09T08:16:18.881Z,102340.56
2022-10-09T08:18:46.640Z,102348.84
2022-10-09T08:21:15.923Z,102343.13
2022-10-09T08:23:44.229Z,102350.59
2022-10-09T08:26:15.555Z,102339.84
2022-10-09T08:28:45.781Z,102350.72
2022-10-09T08:31:14.259Z,102348.47
2022-10-09T08:33:42.576Z,102349.81
2022-10-09T08:36:12.061Z,102345.94
2022-10-09T08:38:48.199Z,102337.66
2022-10-09T08:41:23.014Z,102322.50
2022-10-09T08:43:53.738Z,102328.88
2022-10-09T08:46:24.499Z,102330.16
2022-10-09T08:48:52.877Z,102333.03
2022-10-09T08:51:24.430Z,102321.84
2022-10-09T08:53:57.409Z,102325.56
2022-10-09T08:56:26.553Z,102315.41
2022-10-09T08:58:55.618Z,102311.25
2022-10-09T09:01:29.959Z,102296.09
2022-10-09T09:04:12.468Z,102305.50
2022-10-09T09:06:45.132Z,102298.97
2022-10-09T09:09:18.522Z,102305.66
2022-10-09T09:11:50.605Z,102294.56
2022-10-09T09:14:36.067Z,102299.16
2022-10-09T09:17:10.002Z,102293.84
2022-10-09T09:19:50.023Z,102295.47
2022-10-09T09:22:17.805Z,102296.88
2022-10-09T09:24:48.798Z,102303.03
2022-10-09T09:27:20.175Z,102292.00
2022-10-09T09:29:55.826Z,102296.50
2022-10-09T09:32:25.477Z,102287.25
2022-10-09T09:34:54.959Z,102284.06
2022-10-09T09:37:23.893Z,102286.13
2022-10-09T09:40:35.119Z,102276.88
2022-10-09T09:42:39.327Z,102275.63
2022-10-09T09:45:14.166Z,102273.28
2022-10-09T09:47:45.250Z,102271.66
2022-10-09T09:50:35.010Z,102263.28
2022-10-09T09:53:03.075Z,102261.75
2022-10-09T09:55:32.521Z,102259.53
2022-10-09T09:58:01.962Z,102253.53
2022-10-09T10:00:31.169Z,102246.31
2022-10-09T10:03:14.436Z,102241.31
2022-10-09T10:05:43.357Z,102245.41
2022-10-09T10:08:15.144Z,102234.59
2022-10-09T10:10:47.693Z,102239.41
2022-10-09T10:13:17.806Z,102236.31
2022-10-09T10:15:52.856Z,102233.81
2022-10-09T10:18:21.245Z,102236.56
2022-10-09T10:20:50.703Z,102227.91
2022-10-09T10:23:27.618Z,102232.19
2022-10-09T10:25:56.879Z,102225.22
2022-10-09T10:28:29.450Z,102213.13
2022-10-09T10:31:02.300Z,102210.00
2022-10-09T10:33:33.165Z,102214.34
2022-10-09T10:36:01.244Z,102215.72
2022-10-09T10:38:33.684Z,102206.63
2022-10-09T10:41:09.839Z,102202.03
2022-10-09T10:43:42.899Z,102204.34
2022-10-09T10:46:17.126Z,102202.06
2022-10-09T10:48:47.078Z,102200.63
2022-10-09T10:51:30.568Z,102185.84
2022-10-09T10:54:07.847Z,102187.78
2022-10-09T10:56:38.474Z,102187.31
2022-10-09T10:59:26.784Z,102182.22
2022-10-09T11:02:06.665Z,102189.34
2022-10-09T11:04:38.434Z,102186.56
2022-10-09T11:07:13.021Z,102164.88
2022-10-09T11:09:46.494Z,102167.91
2022-10-09T11:12:30.091Z,102163.31
2022-10-09T11:15:10.769Z,102159.41
2022-10-09T11:17:47.261Z,102150.06
2022-10-09T11:20:43.874Z,102158.16
2022-10-09T11:23:16.529Z,102150.63
2022-10-09T11:25:51.772Z,102139.81
2022-10-09T11:28:22.047Z,102137.88
2022-10-09T11:30:53.508Z,102136.50
2022-10-09T11:33:30.777Z,102131.38
2022-10-09T11:36:02.467Z,102126.16
2022-10-09T11:38:33.473Z,102121.16
2022-10-09T11:41:06.421Z,102114.56
2022-10-09T11:43:44.956Z,102114.03
2022-10-09T11:46:19.204Z,102105.75
2022-10-09T11:48:51.567Z,102099.34
2022-10-09T11:51:25.726Z,102110.38
2022-10-09T11:53:54.426Z,102093.25
2022-10-09T11:56:24.266Z,102091.75
2022-10-09T11:58:59.802Z,102087.31
2022-10-09T12:01:30.776Z,102088.16
2022-10-09T12:04:05.852Z,102075.75
2022-10-09T12:06:33.894Z,102079.69
2022-10-09T12:09:03.487Z,102072.25
2022-10-09T12:11:32.169Z,102059.19
2022-10-09T12:14:02.150Z,102055.53
2022-10-09T12:16:39.988Z,102059.75
2022-10-09T12:19:23.259Z,102050.78
2022-10-09T12:21:55.420Z,102039.16
2022-10-09T12:24:25.498Z,102039.25
2022-10-09T12:26:55.201Z,102040.97
2022-10-09T12:29:28.596Z,102020.66
2022-10-09T12:32:00.312Z,102026.84
2022-10-09T12:34:32.015Z,102024.31
2022-10-09T12:37:12.750Z,102023.59
2022-10-09T12:39:40.822Z,102018.66
2022-10-09T12:42:15.465Z,102015.53
2022-10-09T12:44:43.164Z,102014.94
2022-10-09T12:47:21.217Z,102008.16
2022-10-09T12:50:00.743Z,102006.75
2022-10-09T12:52:29.216Z,101995.50
2022-10-09T12:54:56.957Z,101993.94
2022-10-09T12:57:27.726Z,101990.44
2022-10-09T12:59:56.413Z,101976.41
2022-10-09T13:02:24.208Z,101972.88
2022-10-09T13:05:02.148Z,101968.25
2022-10-09T13:07:32.327Z,101970.47
2022-10-09T13:10:03.671Z,101959.78
2022-10-09T13:12:32.269Z,101954.94
2022-10-09T13:15:01.152Z,101955.63
2022-10-09T13:17:34.654Z,101960.97
2022-10-09T13:20:05.624Z,101950.28
2022-10-09T13:22:35.088Z,101945.81
2022-10-09T13:25:04.110Z,101936.97
2022-10-09T13:27:34.352Z,101925.59
2022-10-09T13:30:02.472Z,101932.94
2022-10-09T13:32:30.964Z,101916.06
2022-10-09T13:34:58.565Z,101916.06
2022-10-09T13:37:28.050Z,101908.06
2022-10-09T13:39:57.273Z,101914.13
2022-10-09T13:42:26.629Z,101908.06
2022-10-09T13:44:54.837Z,101902.59
2022-10-09T13:47:24.609Z,101906.94
2022-10-09T13:49:52.690Z,101896.44
2022-10-09T13:52:20.359Z,101894.16
2022-10-09T13:54:49.518Z,101893.06
2022-10-09T13:57:17.149Z,101888.56
2022-10-09T13:59:44.849Z,101879.44
2022-10-09T14:02:13.039Z,101877.09
2022-10-09T14:04:41.115Z,101866.84
2022-10-09T14:07:09.018Z,101863.78
2022-10-09T14:09:36.886Z,101859.72
2022-10-09T14:12:05.939Z,101853.56
2022-10-09T14:14:33.694Z,101846.56
2022-10-09T14:17:01.370Z,101854.44
2022-10-09T14:19:29.001Z,101851.66
2022-10-09T14:21:57.131Z,101847.72
2022-10-09T14:24:25.530Z,101842.13
2022-10-09T14:26:53.128Z,101835.34
2022-10-09T14:29:22.162Z,101832.97
2022-10-09T14:31:50.954Z,101832.84
2022-10-09T14:34:18.679Z,101834.94
2022-10-09T14:36:46.475Z,101830.31
2022-10-09T14:39:14.155Z,101817.66
2022-10-09T14:41:41.807Z,101817.38
2022-10-09T14:44:10.976Z,101807.81
2022-10-09T14:46:40.019Z,101806.00
2022-10-09T14:49:08.605Z,101799.97
2022-10-09T14:51:39.355Z,101801.06
2022-10-09T14:54:08.220Z,101800.81
2022-10-09T14:56:36.588Z,101795.75
2022-10-09T14:59:05.852Z,101792.34
2022-10-09T15:01:34.089Z,101785.88
2022-10-09T15:04:03.924Z,101789.25
2022-10-09T15:06:31.850Z,101774.63
2022-10-09T15:09:04.593Z,101777.16
2022-10-09T15:11:34.276Z,101770.09
2022-10-09T15:14:01.984Z,101778.53
2022-10-09T15:16:29.634Z,101771.22
2022-10-09T15:18:58.241Z,101769.53
2022-10-09T15:21:29.779Z,101760.25
2022-10-09T15:23:59.235Z,101764.59
2022-10-09T15:26:28.222Z,101767.53
2022-10-09T15:28:55.936Z,101755.44
2022-10-09T15:31:26.059Z,101759.94
2022-10-09T15:33:54.864Z,101755.75
2022-10-09T15:36:23.398Z,101749.56
2022-10-09T15:38:52.450Z,101750.66
2022-10-09T15:41:21.518Z,101741.81
2022-10-09T15:43:49.788Z,101743.94
2022-10-09T15:46:17.808Z,101742.63
2022-10-09T15:48:45.718Z,101737.16
2022-10-09T15:51:13.971Z,101728.47
2022-10-09T15:53:42.624Z,101724.25
2022-10-09T15:56:17.980Z,101718.19
2022-10-09T15:58:45.794Z,101716.53
2022-10-09T16:01:14.846Z,101708.66
2022-10-09T16:03:42.924Z,101701.50
2022-10-09T16:06:12.773Z,101700.38
2022-10-09T16:08:40.960Z,101701.22
2022-10-09T16:11:13.006Z,101695.19
2022-10-09T16:13:42.676Z,101692.78
2022-10-09T16:16:13.418Z,101693.06
2022-10-09T16:18:41.059Z,101696.00
2022-10-09T16:21:10.002Z,101688.00
2022-10-09T16:23:37.862Z,101684.59
2022-10-09T16:26:06.012Z,101692.75
2022-10-09T16:28:35.643Z,101689.53
2022-10-09T16:31:03.771Z,101687.94
2022-10-09T16:33:31.512Z,101676.69
2022-10-09T16:36:09.633Z,101679.50
2022-10-09T16:38:37.988Z,101677.81
2022-10-09T16:41:08.968Z,101677.22
2022-10-09T16:43:38.479Z,101675.56
2022-10-09T16:46:10.668Z,101681.16
2022-10-09T16:48:38.320Z,101674.25
2022-10-09T16:51:09.490Z,101676.34
2022-10-09T16:53:37.256Z,101672.16
2022-10-09T16:56:09.739Z,101671.56
2022-10-09T16:58:38.862Z,101671.56
2022-10-09T17:01:09.938Z,101679.81
2022-10-09T17:03:40.288Z,101673.22
2022-10-09T17:06:09.625Z,101670.94
2022-10-09T17:08:37.325Z,101669.53
2022-10-09T17:11:08.653Z,101673.41
2022-10-09T17:13:38.044Z,101668.59
2022-10-09T17:16:06.809Z,101661.03
2022-10-09T17:18:35.208Z,101664.09
2022-10-09T17:21:04.164Z,101658.19
2022-10-09T17:23:31.973Z,101663.66
2022-10-09T17:26:00.376Z,101655.91
2022-10-09T17:28:28.087Z,101656.44
2022-10-09T17:30:57.306Z,101649.69
2022-10-09T17:33:24.931Z,101649.94
2022-10-09T17:35:52.522Z,101652.16
2022-10-09T17:38:20.153Z,101635.59
2022-10-09T17:40:47.791Z,101640.22
2022-10-09T17:43:15.438Z,101643.84
2022-10-09T17:45:46.775Z,101639.75
2022-10-09T17:48:15.983Z,101648.47
2022-10-09T17:50:51.871Z,101647.88
2022-10-09T17:53:19.616Z,101638.34
2022-10-09T17:55:47.230Z,101648.38
2022-10-09T17:58:14.828Z,101641.63
2022-10-09T18:00:42.742Z,101637.63
2022-10-09T18:03:10.667Z,101639.47
2022-10-09T18:05:42.685Z,101631.97
2022-10-09T18:08:10.366Z,101630.91
2022-10-09T18:10:38.102Z,101631.97
2022-10-09T18:13:06.019Z,101627.78
2022-10-09T18:15:37.703Z,101630.72
2022-10-09T18:18:05.481Z,101625.75
2022-10-09T18:20:34.577Z,101633.16
2022-10-09T18:23:03.745Z,101622.75
2022-10-09T18:25:31.706Z,101617.84
2022-10-09T18:28:00.276Z,101623.66
2022-10-09T18:30:28.612Z,101623.31
2022-10-09T18:32:56.292Z,101621.28
2022-10-09T18:35:25.490Z,101619.97
2022-10-09T18:37:53.329Z,101613.47
2022-10-09T18:40:22.422Z,101606.00
2022-10-09T18:42:50.405Z,101619.66
2022-10-09T18:45:18.140Z,101613.88
2022-10-09T18:47:46.085Z,101613.38
2022-10-09T18:50:14.729Z,101611.13
2022-10-09T18:52:42.968Z,101614.13
2022-10-09T18:55:12.196Z,101617.28
2022-10-09T18:57:41.913Z,101615.72
2022-10-09T19:00:10.668Z,101616.09
2022-10-09T19:05:11.171Z,101616.56
2022-10-09T19:07:38.884Z,101606.78
2022-10-09T19:10:07.747Z,101603.50
2022-10-09T19:12:35.712Z,101606.06
2022-10-09T19:15:11.043Z,101600.00
2022-10-09T19:17:39.695Z,101599.28
2022-10-09T19:20:08.237Z,101598.78
2022-10-09T19:22:35.948Z,101584.94
2022-10-09T19:25:03.769Z,101584.94
2022-10-09T19:27:32.491Z,101583.25
2022-10-09T19:30:00.990Z,101581.66
2022-10-09T19:32:30.903Z,101581.78
2022-10-09T19:34:58.661Z,101583.72
2022-10-09T19:37:29.047Z,101579.53
2022-10-09T19:39:57.980Z,101569.97
2022-10-09T19:42:25.754Z,101572.88
2022-10-09T19:44:53.351Z,101574.69
2022-10-09T19:47:21.983Z,101578.31
2022-10-09T19:49:51.042Z,101573.00
2022-10-09T19:52:18.706Z,101570.47
2022-10-09T19:54:46.400Z,101578.31
2022-10-09T19:57:14.056Z,101568.53
2022-10-09T19:59:41.640Z,101559.88
2022-10-09T20:04:14.002Z,101565.19
2022-10-09T20:06:43.010Z,101566.84
2022-10-09T20:09:12.304Z,101544.19
2022-10-09T20:12:34.234Z,101561.31
2022-10-09T20:15:01.850Z,101553.22
2022-10-09T20:17:29.783Z,101554.06
2022-10-09T20:19:57.533Z,101554.06
2022-10-09T20:22:25.262Z,101550.44
2022-10-09T20:24:53.394Z,101546.09
2022-10-09T20:27:21.074Z,101544.53
2022-10-09T20:29:50.168Z,101547.06
2022-10-09T20:32:18.491Z,101541.75
2022-10-09T20:34:46.109Z,101547.06
2022-10-09T20:37:13.830Z,101543.69
2022-10-09T20:39:41.387Z,101538.50
2022-10-09T20:42:09.009Z,101537.53
2022-10-09T20:44:36.704Z,101532.25
2022-10-09T20:47:05.814Z,101540.06
2022-10-09T20:49:33.492Z,101538.38
2022-10-09T20:52:01.214Z,101533.09
2022-10-09T20:54:30.355Z,101529.72
2022-10-09T20:56:59.350Z,101521.84
2022-10-09T20:59:27.014Z,101527.28
2022-10-09T21:01:54.628Z,101517.66
2022-10-09T21:04:23.744Z,101521.25
2022-10-09T21:06:51.333Z,101513.44
2022-10-09T21:09:18.962Z,101524.88
2022-10-09T21:11:46.704Z,101509.19
2022-10-09T21:14:14.348Z,101505.69
2022-10-09T21:16:42.146Z,101505.81
2022-10-09T21:19:12.074Z,101506.78
2022-10-09T21:21:41.086Z,101506.09
2022-10-09T21:24:08.727Z,101500.06
2022-10-09T21:26:36.443Z,101500.16
2022-10-09T21:29:04.931Z,101494.97
2022-10-09T21:31:33.237Z,101498.59
2022-10-09T21:34:01.737Z,101490.91
2022-10-09T21:36:35.754Z,101496.22
2022-10-09T21:39:06.197Z,101493.06
2022-10-09T21:41:33.984Z,101488.72
2022-10-09T21:44:01.936Z,101492.22
2022-10-09T21:46:29.774Z,101489.69
2022-10-09T21:48:57.688Z,101481.25
2022-10-09T21:51:25.787Z,101481.25
2022-10-09T21:53:54.303Z,101476.19
2022-10-09T21:56:24.077Z,101468.25
2022-10-09T21:58:51.942Z,101473.53
2022-10-09T22:01:19.719Z,101472.78
2022-10-09T22:03:47.486Z,101469.44
2022-10-09T22:06:19.216Z,101468.59
2022-10-09T22:08:47.899Z,101472.22
2022-10-09T22:11:16.321Z,101472.22
2022-10-09T22:13:45.449Z,101469.69
2022-10-09T22:16:15.290Z,101463.75
2022-10-09T22:18:43.162Z,101464.72
2022-10-09T22:21:13.102Z,101464.84
2022-10-09T22:23:41.247Z,101463.88
2022-10-09T22:26:13.164Z,101454.25
2022-10-09T22:28:40.867Z,101445.59
2022-10-09T22:31:12.522Z,101441.22
2022-10-09T22:33:40.295Z,101434.00
2022-10-09T22:36:10.170Z,101429.69
2022-10-09T22:38:38.684Z,101435.19
2022-10-09T22:41:08.811Z,101429.91
2022-10-09T22:43:37.137Z,101424.00
2022-10-09T22:46:11.990Z,101415.09
2022-10-09T22:48:39.901Z,101416.19
2022-10-09T22:51:09.131Z,101409.44
2022-10-09T22:53:37.564Z,101410.88
2022-10-09T22:56:06.261Z,101416.41
2022-10-09T22:58:33.983Z,101413.03
2022-10-09T23:01:04.376Z,101403.53
2022-10-09T23:03:33.631Z,101404.38
2022-10-09T23:06:09.473Z,101407.97
2022-10-09T23:08:38.664Z,101406.28
2022-10-09T23:11:06.402Z,101401.94
2022-10-09T23:13:34.151Z,101394.97
2022-10-09T23:16:02.138Z,101394.97
2022-10-09T23:18:30.432Z,101390.63
2022-10-09T23:20:59.590Z,101393.41
2022-10-09T23:23:29.048Z,101397.03
2022-10-09T23:25:56.761Z,101387.50
2022-10-09T23:28:26.491Z,101390.25
2022-10-09T23:30:54.211Z,101391.09
2022-10-09T23:33:21.812Z,101387.75
2022-10-09T23:35:49.462Z,101382.66
2022-10-09T23:38:18.424Z,101390.63
2022-10-09T23:40:55.810Z,101384.59
2022-10-09T23:43:23.526Z,101382.19
2022-10-09T23:45:51.294Z,101386.75
2022-10-09T23:48:19.169Z,101387.69
2022-10-09T23:50:48.933Z,101383.34
2022-10-09T23:53:18.366Z,101390.59
2022-10-09T23:55:46.603Z,101386.38
2022-10-09T23:58:19.834Z,101388.28
